Buford, Wyoming
Current Conditions -  °F | °C
As of 11:56 AM on Saturday 20 Dec 2014 (Local Time) from KFEW Reporting Station
Scattered Clouds Scattered Clouds  
Wind Chill: 34°   Ceiling: Unl
Heat Index: 43°   Visibility: 10mi
Dew Point: 18°   Wind: 21mph
Humidity: 37%   Direction: 290°WNW
Pressure: 29.94"   Gusts: 35mph
Location:  41.12°N, 105.31°W
Report Text: KFEW 201856Z AUTO 29018G30KT 10SM SCT095 06/M08 A2994 RMK AO2 PK WND 28030/35 SLP165 T00591077 $
Loading
Personal Weather Stations






























Interactive Weather Map New forecast layout! Learn more

10-Day Weather Forecast

Advertisements
Track Severe Weather on mobile